sensor_id;sensor_type;location;lat;lon;timestamp;pressure;altitude;pressure_sealevel;temperature;humidity
57086;BME280;42964;42.910;23.792;2023-01-25T00:02:43;99094.69;;;-0.11;92.25
57086;BME280;42964;42.910;23.792;2023-01-25T00:07:42;99101.25;;;-0.14;93.00
57086;BME280;42964;42.910;23.792;2023-01-25T00:12:41;99111.03;;;0.06;92.36
57086;BME280;42964;42.910;23.792;2023-01-25T00:17:40;99066.28;;;-0.02;91.98
57086;BME280;42964;42.910;23.792;2023-01-25T00:22:39;99041.47;;;-0.05;91.96
57086;BME280;42964;42.910;23.792;2023-01-25T00:27:38;99068.19;;;-0.13;91.97
57086;BME280;42964;42.910;23.792;2023-01-25T00:38:33;99106.38;;;-0.41;92.56
57086;BME280;42964;42.910;23.792;2023-01-25T00:43:32;99101.28;;;-0.41;92.80
57086;BME280;42964;42.910;23.792;2023-01-25T00:48:31;99104.13;;;-0.63;93.06
57086;BME280;42964;42.910;23.792;2023-01-25T00:53:30;99088.31;;;-0.31;92.62
57086;BME280;42964;42.910;23.792;2023-01-25T00:58:29;99096.16;;;-0.14;92.23
57086;BME280;42964;42.910;23.792;2023-01-25T01:03:28;99054.91;;;-0.62;92.27
57086;BME280;42964;42.910;23.792;2023-01-25T01:08:27;99094.50;;;-0.41;92.10
57086;BME280;42964;42.910;23.792;2023-01-25T01:13:26;99102.16;;;-0.41;92.36
57086;BME280;42964;42.910;23.792;2023-01-25T01:18:25;99073.59;;;-0.35;92.53
57086;BME280;42964;42.910;23.792;2023-01-25T01:23:24;99063.91;;;-0.54;91.88
57086;BME280;42964;42.910;23.792;2023-01-25T01:28:23;99088.03;;;-0.49;92.40
57086;BME280;42964;42.910;23.792;2023-01-25T01:33:22;99068.66;;;-0.60;93.09
57086;BME280;42964;42.910;23.792;2023-01-25T01:38:21;99064.31;;;-0.48;93.05
57086;BME280;42964;42.910;23.792;2023-01-25T01:43:23;99086.06;;;-0.40;92.84
57086;BME280;42964;42.910;23.792;2023-01-25T01:53:36;99072.25;;;-0.70;93.46
57086;BME280;42964;42.910;23.792;2023-01-25T01:58:36;99071.66;;;-0.66;93.98
57086;BME280;42964;42.910;23.792;2023-01-25T02:03:35;99077.56;;;-0.67;94.18
57086;BME280;42964;42.910;23.792;2023-01-25T02:08:35;99068.13;;;-0.54;93.96
57086;BME280;42964;42.910;23.792;2023-01-25T02:13:36;99076.94;;;-0.63;94.18
57086;BME280;42964;42.910;23.792;2023-01-25T02:18:35;99070.78;;;-0.66;94.39
57086;BME280;42964;42.910;23.792;2023-01-25T02:23:39;99055.78;;;-0.62;94.47
57086;BME280;42964;42.910;23.792;2023-01-25T02:28:51;99050.75;;;-0.47;94.17
57086;BME280;42964;42.910;23.792;2023-01-25T02:33:52;99048.25;;;-0.60;94.28
57086;BME280;42964;42.910;23.792;2023-01-25T02:39:13;99050.28;;;-0.41;93.39
57086;BME280;42964;42.910;23.792;2023-01-25T02:44:20;99049.19;;;-0.31;93.74
57086;BME280;42964;42.910;23.792;2023-01-25T02:49:21;99052.69;;;-0.16;93.66
57086;BME280;42964;42.910;23.792;2023-01-25T02:54:20;99059.56;;;-0.42;93.28
57086;BME280;42964;42.910;23.792;2023-01-25T02:59:20;99044.09;;;-0.45;94.08
57086;BME280;42964;42.910;23.792;2023-01-25T03:04:19;99047.63;;;-0.43;93.42
57086;BME280;42964;42.910;23.792;2023-01-25T03:09:17;99046.63;;;-0.18;93.86
57086;BME280;42964;42.910;23.792;2023-01-25T03:14:16;99043.44;;;-0.01;93.44
57086;BME280;42964;42.910;23.792;2023-01-25T03:19:15;99034.25;;;0.16;93.00
57086;BME280;42964;42.910;23.792;2023-01-25T03:24:14;99026.53;;;0.01;92.16
57086;BME280;42964;42.910;23.792;2023-01-25T03:29:13;98999.91;;;-0.17;92.33
57086;BME280;42964;42.910;23.792;2023-01-25T03:34:12;99022.34;;;0.17;92.60
57086;BME280;42964;42.910;23.792;2023-01-25T03:39:11;99024.84;;;0.15;91.64
57086;BME280;42964;42.910;23.792;2023-01-25T03:44:10;99029.41;;;0.21;91.46
57086;BME280;42964;42.910;23.792;2023-01-25T03:49:11;98998.44;;;0.15;92.05
57086;BME280;42964;42.910;23.792;2023-01-25T03:54:10;99023.13;;;0.44;92.38
57086;BME280;42964;42.910;23.792;2023-01-25T03:59:10;99026.22;;;0.38;91.16
57086;BME280;42964;42.910;23.792;2023-01-25T04:04:09;99024.69;;;0.42;91.75
57086;BME280;42964;42.910;23.792;2023-01-25T04:09:08;99031.75;;;0.46;91.62
57086;BME280;42964;42.910;23.792;2023-01-25T04:14:07;99022.16;;;0.57;91.67
57086;BME280;42964;42.910;23.792;2023-01-25T04:19:05;99028.94;;;0.56;91.16
57086;BME280;42964;42.910;23.792;2023-01-25T04:24:04;99033.91;;;0.68;91.36
57086;BME280;42964;42.910;23.792;2023-01-25T04:29:03;99032.66;;;0.61;91.25
57086;BME280;42964;42.910;23.792;2023-01-25T04:34:02;99025.19;;;0.64;91.15
57086;BME280;42964;42.910;23.792;2023-01-25T04:39:01;99005.84;;;0.25;89.31
57086;BME280;42964;42.910;23.792;2023-01-25T04:44:00;99024.44;;;0.37;90.97
57086;BME280;42964;42.910;23.792;2023-01-25T04:48:59;99020.47;;;0.42;90.89
57086;BME280;42964;42.910;23.792;2023-01-25T04:53:58;99018.28;;;0.48;90.45
57086;BME280;42964;42.910;23.792;2023-01-25T04:58:57;98992.66;;;0.32;89.65
57086;BME280;42964;42.910;23.792;2023-01-25T05:03:56;99027.69;;;0.50;90.93
57086;BME280;42964;42.910;23.792;2023-01-25T05:08:54;99032.59;;;0.60;90.68
57086;BME280;42964;42.910;23.792;2023-01-25T05:13:53;99027.75;;;0.64;90.25
57086;BME280;42964;42.910;23.792;2023-01-25T05:18:55;99018.28;;;0.48;90.29
57086;BME280;42964;42.910;23.792;2023-01-25T05:23:54;99021.09;;;0.38;89.66
57086;BME280;42964;42.910;23.792;2023-01-25T05:28:53;99032.19;;;0.39;89.73
57086;BME280;42964;42.910;23.792;2023-01-25T05:33:52;99026.38;;;0.26;89.39
57086;BME280;42964;42.910;23.792;2023-01-25T05:38:51;99038.97;;;0.38;90.32
57086;BME280;42964;42.910;23.792;2023-01-25T05:43:50;98847.47;;;-0.77;89.82
57086;BME280;42964;42.910;23.792;2023-01-25T05:48:49;99034.97;;;0.29;89.70
57086;BME280;42964;42.910;23.792;2023-01-25T05:53:48;99037.66;;;0.17;89.43
57086;BME280;42964;42.910;23.792;2023-01-25T05:58:54;99044.31;;;-0.00;89.23
57086;BME280;42964;42.910;23.792;2023-01-25T06:03:54;99046.44;;;0.07;90.60
57086;BME280;42964;42.910;23.792;2023-01-25T06:08:53;99048.16;;;0.21;90.98
57086;BME280;42964;42.910;23.792;2023-01-25T06:13:52;99046.13;;;0.16;90.70
57086;BME280;42964;42.910;23.792;2023-01-25T06:18:51;99055.66;;;0.33;90.05
57086;BME280;42964;42.910;23.792;2023-01-25T06:23:50;99047.69;;;0.42;90.43
57086;BME280;42964;42.910;23.792;2023-01-25T06:28:49;99051.88;;;0.55;90.75
57086;BME280;42964;42.910;23.792;2023-01-25T06:33:49;99046.41;;;0.63;89.95
57086;BME280;42964;42.910;23.792;2023-01-25T06:38:49;99043.41;;;0.71;90.07
57086;BME280;42964;42.910;23.792;2023-01-25T06:43:51;99036.53;;;0.84;90.52
57086;BME280;42964;42.910;23.792;2023-01-25T06:48:51;98987.03;;;0.53;88.73
57086;BME280;42964;42.910;23.792;2023-01-25T06:53:49;99039.81;;;0.82;89.03
57086;BME280;42964;42.910;23.792;2023-01-25T06:58:49;99037.94;;;0.94;88.59
57086;BME280;42964;42.910;23.792;2023-01-25T07:03:50;99034.25;;;0.74;88.51
57086;BME280;42964;42.910;23.792;2023-01-25T07:08:49;99031.88;;;0.62;88.61
57086;BME280;42964;42.910;23.792;2023-01-25T07:13:48;99049.44;;;0.71;88.18
57086;BME280;42964;42.910;23.792;2023-01-25T07:18:47;99051.72;;;0.81;88.79
57086;BME280;42964;42.910;23.792;2023-01-25T07:23:47;99032.47;;;0.73;87.95
57086;BME280;42964;42.910;23.792;2023-01-25T07:28:47;99048.63;;;1.02;88.01
57086;BME280;42964;42.910;23.792;2023-01-25T07:33:48;98965.19;;;0.87;89.18
57086;BME280;42964;42.910;23.792;2023-01-25T07:38:47;99039.78;;;1.41;85.70
57086;BME280;42964;42.910;23.792;2023-01-25T07:43:46;99032.69;;;1.52;87.69
57086;BME280;42964;42.910;23.792;2023-01-25T07:48:47;99041.50;;;1.57;85.07
57086;BME280;42964;42.910;23.792;2023-01-25T07:53:49;99034.66;;;1.41;85.92
57086;BME280;42964;42.910;23.792;2023-01-25T07:58:51;99029.34;;;1.53;86.28
57086;BME280;42964;42.910;23.792;2023-01-25T08:03:51;99031.72;;;1.50;84.20
57086;BME280;42964;42.910;23.792;2023-01-25T08:08:50;99034.28;;;1.50;85.35
57086;BME280;42964;42.910;23.792;2023-01-25T08:13:49;99029.28;;;1.37;84.21
57086;BME280;42964;42.910;23.792;2023-01-25T08:18:57;99043.53;;;1.48;86.20
57086;BME280;42964;42.910;23.792;2023-01-25T08:24:00;99045.63;;;1.55;84.43
57086;BME280;42964;42.910;23.792;2023-01-25T08:29:01;99042.00;;;1.35;83.93
57086;BME280;42964;42.910;23.792;2023-01-25T08:34:01;99062.63;;;0.94;85.52
57086;BME280;42964;42.910;23.792;2023-01-25T08:39:04;99058.50;;;1.25;86.48
57086;BME280;42964;42.910;23.792;2023-01-25T08:44:04;99038.81;;;1.24;85.05
57086;BME280;42964;42.910;23.792;2023-01-25T08:49:03;99052.41;;;1.23;84.08
57086;BME280;42964;42.910;23.792;2023-01-25T08:54:08;99055.13;;;1.26;85.46
57086;BME280;42964;42.910;23.792;2023-01-25T08:59:11;99048.78;;;1.35;85.22
57086;BME280;42964;42.910;23.792;2023-01-25T09:04:11;99061.22;;;0.99;84.88
57086;BME280;42964;42.910;23.792;2023-01-25T09:09:11;99045.50;;;1.22;86.95
57086;BME280;42964;42.910;23.792;2023-01-25T09:14:10;99035.91;;;1.64;86.59
57086;BME280;42964;42.910;23.792;2023-01-25T09:19:09;99035.56;;;1.89;84.81
57086;BME280;42964;42.910;23.792;2023-01-25T09:24:08;99029.81;;;1.93;84.99
57086;BME280;42964;42.910;23.792;2023-01-25T09:29:08;99011.53;;;2.02;83.15
57086;BME280;42964;42.910;23.792;2023-01-25T09:34:11;99001.44;;;2.05;82.67
57086;BME280;42964;42.910;23.792;2023-01-25T09:39:11;98938.53;;;1.78;84.36
57086;BME280;42964;42.910;23.792;2023-01-25T09:54:38;98978.06;;;2.15;82.45
57086;BME280;42964;42.910;23.792;2023-01-25T09:59:39;98981.28;;;1.95;81.45
57086;BME280;42964;42.910;23.792;2023-01-25T10:04:41;98972.81;;;1.48;83.27
57086;BME280;42964;42.910;23.792;2023-01-25T10:10:01;98968.72;;;1.52;81.84
57086;BME280;42964;42.910;23.792;2023-01-25T10:15:28;98962.75;;;1.51;81.03
57086;BME280;42964;42.910;23.792;2023-01-25T10:25:42;98946.31;;;1.31;83.42
57086;BME280;42964;42.910;23.792;2023-01-25T10:30:54;98881.81;;;0.89;83.14
57086;BME280;42964;42.910;23.792;2023-01-25T10:35:55;98923.75;;;1.24;84.33
57086;BME280;42964;42.910;23.792;2023-01-25T10:41:08;98893.84;;;1.07;83.02
57086;BME280;42964;42.910;23.792;2023-01-25T10:46:18;98908.41;;;1.24;82.83
57086;BME280;42964;42.910;23.792;2023-01-25T10:51:35;98898.34;;;1.11;84.23
57086;BME280;42964;42.910;23.792;2023-01-25T10:56:38;98894.97;;;1.12;84.86
57086;BME280;42964;42.910;23.792;2023-01-25T11:01:37;98815.91;;;0.84;83.86
57086;BME280;42964;42.910;23.792;2023-01-25T11:06:39;98867.97;;;1.17;84.31
57086;BME280;42964;42.910;23.792;2023-01-25T11:12:02;98884.78;;;1.28;84.92
57086;BME280;42964;42.910;23.792;2023-01-25T11:17:04;98785.84;;;0.95;82.24
57086;BME280;42964;42.910;23.792;2023-01-25T11:22:26;98858.88;;;1.39;82.68
57086;BME280;42964;42.910;23.792;2023-01-25T11:27:26;98872.56;;;1.23;82.46
57086;BME280;42964;42.910;23.792;2023-01-25T11:32:25;98873.44;;;1.40;82.52
57086;BME280;42964;42.910;23.792;2023-01-25T11:47:43;98851.06;;;1.36;84.08
57086;BME280;42964;42.910;23.792;2023-01-25T11:53:23;98843.25;;;1.32;84.06
57086;BME280;42964;42.910;23.792;2023-01-25T12:09:15;98767.53;;;1.03;81.68
57086;BME280;42964;42.910;23.792;2023-01-25T12:35:36;98799.72;;;0.83;83.99
57086;BME280;42964;42.910;23.792;2023-01-25T12:40:57;98803.31;;;0.87;83.59
57086;BME280;42964;42.910;23.792;2023-01-25T12:46:09;98789.13;;;1.08;83.80
57086;BME280;42964;42.910;23.792;2023-01-25T12:51:09;98774.44;;;1.21;82.56
57086;BME280;42964;42.910;23.792;2023-01-25T12:56:36;98765.72;;;1.17;81.78
57086;BME280;42964;42.910;23.792;2023-01-25T13:01:37;98740.47;;;1.07;81.80
57086;BME280;42964;42.910;23.792;2023-01-25T13:06:55;98771.69;;;1.01;82.75
57086;BME280;42964;42.910;23.792;2023-01-25T13:11:57;98759.81;;;1.18;83.43
57086;BME280;42964;42.910;23.792;2023-01-25T13:27:41;98756.78;;;1.09;82.30
57086;BME280;42964;42.910;23.792;2023-01-25T13:37:42;98756.16;;;1.13;82.71
57086;BME280;42964;42.910;23.792;2023-01-25T13:42:58;98750.63;;;1.22;82.68
57086;BME280;42964;42.910;23.792;2023-01-25T13:48:09;98756.44;;;1.03;82.11
57086;BME280;42964;42.910;23.792;2023-01-25T13:58:18;98755.81;;;0.90;82.33
57086;BME280;42964;42.910;23.792;2023-01-25T14:03:19;98697.00;;;0.58;82.25
57086;BME280;42964;42.910;23.792;2023-01-25T14:08:20;98654.91;;;0.18;83.01
57086;BME280;42964;42.910;23.792;2023-01-25T14:13:20;98755.59;;;0.55;83.58
57086;BME280;42964;42.910;23.792;2023-01-25T14:18:20;98757.38;;;0.72;82.64
57086;BME280;42964;42.910;23.792;2023-01-25T14:23:25;98751.78;;;0.63;83.58
57086;BME280;42964;42.910;23.792;2023-01-25T14:28:25;98752.97;;;0.69;84.12
57086;BME280;42964;42.910;23.792;2023-01-25T14:33:31;98762.50;;;0.88;83.76
57086;BME280;42964;42.910;23.792;2023-01-25T14:38:38;98769.53;;;0.76;83.14
57086;BME280;42964;42.910;23.792;2023-01-25T14:43:39;98768.25;;;0.84;83.22
57086;BME280;42964;42.910;23.792;2023-01-25T14:48:41;98735.97;;;0.70;83.24
57086;BME280;42964;42.910;23.792;2023-01-25T14:53:43;98757.72;;;0.78;84.04
57086;BME280;42964;42.910;23.792;2023-01-25T14:58:44;98756.19;;;0.82;83.95
57086;BME280;42964;42.910;23.792;2023-01-25T15:03:43;98759.78;;;0.69;83.53
57086;BME280;42964;42.910;23.792;2023-01-25T15:08:42;98748.59;;;0.67;84.13
57086;BME280;42964;42.910;23.792;2023-01-25T15:13:41;98738.63;;;0.72;84.11
57086;BME280;42964;42.910;23.792;2023-01-25T15:18:51;98579.41;;;-0.09;83.81
57086;BME280;42964;42.910;23.792;2023-01-25T15:23:51;98740.09;;;0.83;83.45
57086;BME280;42964;42.910;23.792;2023-01-25T15:28:53;98736.16;;;0.89;83.20
57086;BME280;42964;42.910;23.792;2023-01-25T15:33:53;98731.50;;;0.66;83.23
57086;BME280;42964;42.910;23.792;2023-01-25T15:38:53;98756.56;;;0.73;83.66
57086;BME280;42964;42.910;23.792;2023-01-25T15:43:52;98744.69;;;0.74;83.10
57086;BME280;42964;42.910;23.792;2023-01-25T15:48:52;98759.50;;;0.48;83.78
57086;BME280;42964;42.910;23.792;2023-01-25T15:53:51;98762.50;;;0.26;84.13
57086;BME280;42964;42.910;23.792;2023-01-25T15:58:51;98717.69;;;0.15;83.90
57086;BME280;42964;42.910;23.792;2023-01-25T16:03:54;98751.31;;;0.39;83.90
57086;BME280;42964;42.910;23.792;2023-01-25T16:08:53;98745.72;;;0.30;84.35
57086;BME280;42964;42.910;23.792;2023-01-25T16:13:53;98761.44;;;0.37;84.24
57086;BME280;42964;42.910;23.792;2023-01-25T16:18:52;98756.13;;;0.18;84.45
57086;BME280;42964;42.910;23.792;2023-01-25T16:23:50;98756.91;;;0.17;85.04
57086;BME280;42964;42.910;23.792;2023-01-25T16:28:50;98758.69;;;0.18;84.54
57086;BME280;42964;42.910;23.792;2023-01-25T16:33:48;98756.53;;;0.25;84.58
57086;BME280;42964;42.910;23.792;2023-01-25T16:38:47;98762.09;;;0.18;84.92
57086;BME280;42964;42.910;23.792;2023-01-25T16:43:47;98747.66;;;0.19;84.53
57086;BME280;42964;42.910;23.792;2023-01-25T16:48:47;98750.22;;;0.19;84.62
57086;BME280;42964;42.910;23.792;2023-01-25T16:53:48;98746.53;;;0.14;84.68
57086;BME280;42964;42.910;23.792;2023-01-25T16:58:49;98730.66;;;0.19;84.55
57086;BME280;42964;42.910;23.792;2023-01-25T17:03:48;98706.50;;;0.13;84.68
57086;BME280;42964;42.910;23.792;2023-01-25T17:08:48;98739.28;;;0.21;84.55
57086;BME280;42964;42.910;23.792;2023-01-25T17:13:52;98722.53;;;0.41;84.60
57086;BME280;42964;42.910;23.792;2023-01-25T17:18:57;98723.59;;;0.78;84.57
57086;BME280;42964;42.910;23.792;2023-01-25T17:23:59;98724.28;;;0.90;82.90
57086;BME280;42964;42.910;23.792;2023-01-25T17:29:00;98617.38;;;0.48;83.79
57086;BME280;42964;42.910;23.792;2023-01-25T17:34:02;98706.03;;;1.33;83.26
57086;BME280;42964;42.910;23.792;2023-01-25T17:39:05;98655.19;;;1.05;81.87
57086;BME280;42964;42.910;23.792;2023-01-25T17:44:04;98697.13;;;1.08;81.39
57086;BME280;42964;42.910;23.792;2023-01-25T17:49:05;98705.78;;;1.28;81.28
57086;BME280;42964;42.910;23.792;2023-01-25T17:54:04;98699.22;;;1.33;82.19
57086;BME280;42964;42.910;23.792;2023-01-25T17:59:04;98687.06;;;1.46;81.66
57086;BME280;42964;42.910;23.792;2023-01-25T18:04:07;98686.91;;;1.43;81.56
57086;BME280;42964;42.910;23.792;2023-01-25T18:09:06;98678.00;;;1.52;81.90
57086;BME280;42964;42.910;23.792;2023-01-25T18:14:08;98679.34;;;1.62;81.59
57086;BME280;42964;42.910;23.792;2023-01-25T18:19:08;98670.44;;;1.72;81.51
57086;BME280;42964;42.910;23.792;2023-01-25T18:34:35;98675.22;;;1.48;80.59
57086;BME280;42964;42.910;23.792;2023-01-25T18:39:34;98674.88;;;1.58;80.97
57086;BME280;42964;42.910;23.792;2023-01-25T18:44:33;98680.66;;;1.54;80.14
57086;BME280;42964;42.910;23.792;2023-01-25T18:49:31;98688.81;;;1.47;79.62
57086;BME280;42964;42.910;23.792;2023-01-25T18:54:30;98677.34;;;1.22;79.66
57086;BME280;42964;42.910;23.792;2023-01-25T18:59:29;98628.56;;;1.01;80.72
57086;BME280;42964;42.910;23.792;2023-01-25T19:04:29;98669.13;;;1.28;79.84
57086;BME280;42964;42.910;23.792;2023-01-25T19:09:28;98672.53;;;1.28;80.13
57086;BME280;42964;42.910;23.792;2023-01-25T19:14:27;98598.50;;;0.79;79.61
57086;BME280;42964;42.910;23.792;2023-01-25T19:19:26;98660.66;;;1.13;79.66
57086;BME280;42964;42.910;23.792;2023-01-25T19:24:29;98654.22;;;1.03;79.90
57086;BME280;42964;42.910;23.792;2023-01-25T19:29:28;98662.50;;;0.99;80.09
57086;BME280;42964;42.910;23.792;2023-01-25T19:34:27;98660.06;;;1.00;81.54
57086;BME280;42964;42.910;23.792;2023-01-25T19:39:26;98662.44;;;1.14;81.97
57086;BME280;42964;42.910;23.792;2023-01-25T19:44:25;98643.78;;;1.32;81.98
57086;BME280;42964;42.910;23.792;2023-01-25T19:49:24;98631.78;;;1.31;81.09
57086;BME280;42964;42.910;23.792;2023-01-25T19:54:23;98615.13;;;1.22;81.08
57086;BME280;42964;42.910;23.792;2023-01-25T19:59:22;98588.03;;;0.91;82.47
57086;BME280;42964;42.910;23.792;2023-01-25T20:04:23;98542.75;;;0.88;81.85
57086;BME280;42964;42.910;23.792;2023-01-25T20:09:22;98616.59;;;1.35;81.92
57086;BME280;42964;42.910;23.792;2023-01-25T20:14:25;98599.03;;;1.24;81.94
57086;BME280;42964;42.910;23.792;2023-01-25T20:19:24;98619.81;;;1.30;81.87
57086;BME280;42964;42.910;23.792;2023-01-25T20:24:23;98598.13;;;1.06;82.33
57086;BME280;42964;42.910;23.792;2023-01-25T20:29:22;98589.34;;;1.01;82.29
57086;BME280;42964;42.910;23.792;2023-01-25T20:34:22;98594.19;;;0.95;82.24
57086;BME280;42964;42.910;23.792;2023-01-25T20:39:21;98584.69;;;0.92;82.15
57086;BME280;42964;42.910;23.792;2023-01-25T20:44:20;98584.72;;;1.10;82.49
57086;BME280;42964;42.910;23.792;2023-01-25T20:49:19;98581.72;;;1.19;83.11
57086;BME280;42964;42.910;23.792;2023-01-25T20:54:18;98575.06;;;1.22;83.19
57086;BME280;42964;42.910;23.792;2023-01-25T20:59:18;98542.06;;;1.09;83.16
57086;BME280;42964;42.910;23.792;2023-01-25T21:04:17;98570.59;;;1.35;82.56
57086;BME280;42964;42.910;23.792;2023-01-25T21:09:16;98571.03;;;1.44;82.63
57086;BME280;42964;42.910;23.792;2023-01-25T21:14:15;98563.56;;;1.48;82.86
57086;BME280;42964;42.910;23.792;2023-01-25T21:19:14;98560.06;;;1.46;82.41
57086;BME280;42964;42.910;23.792;2023-01-25T21:24:13;98559.97;;;1.45;81.48
57086;BME280;42964;42.910;23.792;2023-01-25T21:29:12;98524.38;;;0.96;82.40
57086;BME280;42964;42.910;23.792;2023-01-25T21:34:11;98549.78;;;0.93;82.12
57086;BME280;42964;42.910;23.792;2023-01-25T21:39:10;98544.56;;;0.57;82.73
57086;BME280;42964;42.910;23.792;2023-01-25T21:44:09;98536.13;;;0.41;83.67
57086;BME280;42964;42.910;23.792;2023-01-25T21:49:26;98533.81;;;0.13;84.74
57086;BME280;42964;42.910;23.792;2023-01-25T21:54:44;98522.31;;;0.05;85.15
57086;BME280;42964;42.910;23.792;2023-01-25T21:59:43;98512.06;;;0.03;85.49
57086;BME280;42964;42.910;23.792;2023-01-25T22:04:42;98519.03;;;-0.09;86.13
57086;BME280;42964;42.910;23.792;2023-01-25T22:09:40;98520.72;;;0.07;86.15
57086;BME280;42964;42.910;23.792;2023-01-25T22:14:39;98507.72;;;0.02;86.43
57086;BME280;42964;42.910;23.792;2023-01-25T22:19:38;98504.06;;;-0.19;87.08
57086;BME280;42964;42.910;23.792;2023-01-25T22:24:37;98504.44;;;-0.28;88.02
57086;BME280;42964;42.910;23.792;2023-01-25T22:29:36;98495.69;;;-0.17;87.84
57086;BME280;42964;42.910;23.792;2023-01-25T22:34:35;98472.59;;;-0.03;87.68
57086;BME280;42964;42.910;23.792;2023-01-25T22:39:35;98475.84;;;-0.22;87.68
57086;BME280;42964;42.910;23.792;2023-01-25T22:44:34;98487.63;;;-0.24;88.54
57086;BME280;42964;42.910;23.792;2023-01-25T22:49:33;98469.16;;;-0.04;88.71
57086;BME280;42964;42.910;23.792;2023-01-25T22:54:32;98486.44;;;0.02;88.54
57086;BME280;42964;42.910;23.792;2023-01-25T22:59:30;98460.84;;;0.17;88.08
57086;BME280;42964;42.910;23.792;2023-01-25T23:04:29;98449.22;;;-0.11;87.65
57086;BME280;42964;42.910;23.792;2023-01-25T23:09:28;98443.47;;;-0.23;88.55
57086;BME280;42964;42.910;23.792;2023-01-25T23:14:27;98413.31;;;-0.63;89.43
57086;BME280;42964;42.910;23.792;2023-01-25T23:19:44;98349.91;;;-0.90;89.00
57086;BME280;42964;42.910;23.792;2023-01-25T23:24:43;98449.53;;;-0.21;89.35
57086;BME280;42964;42.910;23.792;2023-01-25T23:29:42;98439.09;;;-0.09;89.20
57086;BME280;42964;42.910;23.792;2023-01-25T23:34:41;98351.28;;;-0.64;89.10
57086;BME280;42964;42.910;23.792;2023-01-25T23:39:42;98429.06;;;-0.23;88.64
57086;BME280;42964;42.910;23.792;2023-01-25T23:44:41;98387.44;;;-0.54;88.53
57086;BME280;42964;42.910;23.792;2023-01-25T23:49:40;98414.00;;;-0.34;88.02
57086;BME280;42964;42.910;23.792;2023-01-25T23:54:38;98403.31;;;-0.11;87.53
57086;BME280;42964;42.910;23.792;2023-01-25T23:59:37;98409.84;;;-0.16;87.43
